createdAt,value
2023-02-09T02:22:53.596Z,-8.79
2023-02-09T02:26:47.673Z,-10.60
2023-02-09T02:30:49.693Z,-10.62
2023-02-09T02:34:34.011Z,-10.67
2023-02-09T02:42:19.729Z,-10.61
2023-02-09T02:46:06.368Z,-10.68
2023-02-09T02:52:57.077Z,-10.79
2023-02-09T02:56:10.013Z,-10.83
2023-02-09T02:59:39.825Z,-10.80
2023-02-09T03:03:13.129Z,-10.72
2023-02-09T03:06:35.483Z,-10.69
2023-02-09T03:09:55.465Z,-10.65
2023-02-09T03:13:37.577Z,-10.60
2023-02-09T03:17:31.869Z,-10.68
2023-02-09T03:25:12.772Z,-10.61
2023-02-09T03:28:40.138Z,-10.58
2023-02-09T03:32:07.681Z,-10.48
2023-02-09T03:35:42.950Z,-10.41
2023-02-09T03:39:24.753Z,-10.36
2023-02-09T03:42:51.198Z,-10.29
2023-02-09T03:46:28.028Z,-10.28
2023-02-09T03:49:45.103Z,-10.28
2023-02-09T03:53:14.701Z,-10.26
2023-02-09T03:56:57.949Z,-10.27
2023-02-09T04:00:36.423Z,-10.26
2023-02-09T04:03:56.162Z,-10.24
2023-02-09T04:07:37.292Z,-10.24
2023-02-09T04:11:08.677Z,-10.27
2023-02-09T04:14:31.770Z,-10.27
2023-02-09T04:17:51.955Z,-10.28
2023-02-09T04:21:16.772Z,-10.28
2023-02-09T04:24:47.705Z,-10.29
2023-02-09T04:28:16.231Z,-10.33
2023-02-09T04:35:52.336Z,-10.36
2023-02-09T04:50:12.059Z,-10.41
2023-02-09T05:01:40.086Z,-10.35
2023-02-09T05:08:52.840Z,-10.44
2023-02-09T05:12:06.090Z,-10.50
2023-02-09T05:33:35.782Z,-10.32
2023-02-09T05:37:20.256Z,-10.34
2023-02-09T05:48:03.564Z,-10.13
2023-02-09T05:51:25.197Z,-10.15
2023-02-09T06:25:13.702Z,-9.25
2023-02-09T06:32:49.240Z,-9.07
2023-02-09T06:40:42.622Z,-8.73
2023-02-09T06:44:21.003Z,-8.54
2023-02-09T06:54:16.764Z,-7.99
2023-02-09T09:52:53.039Z,0.78
2023-02-09T09:59:24.170Z,0.98
2023-02-09T10:28:04.159Z,2.42
2023-02-09T10:31:57.431Z,2.49
2023-02-09T13:55:13.773Z,1.30
2023-02-09T14:06:08.685Z,1.29
2023-02-09T14:13:47.752Z,1.23
2023-02-09T15:12:16.083Z,1.12
2023-02-09T15:20:22.040Z,0.99
2023-02-09T15:48:56.610Z,0.93
2023-02-09T15:52:46.092Z,0.86
2023-02-09T16:07:14.130Z,0.93
2023-02-09T16:11:03.745Z,0.86
2023-02-09T16:17:49.139Z,0.93
2023-02-09T16:21:03.572Z,0.86
2023-02-09T16:24:19.263Z,0.86
2023-02-09T16:27:49.002Z,0.86
2023-02-09T16:31:10.477Z,0.84
2023-02-09T16:34:38.303Z,0.83
2023-02-09T16:37:49.195Z,0.82
2023-02-09T16:41:01.779Z,0.82
2023-02-09T16:44:39.567Z,0.81
2023-02-09T16:48:03.550Z,0.80
2023-02-09T16:51:14.412Z,0.77
2023-02-09T16:54:25.322Z,0.77
2023-02-09T16:57:40.193Z,0.74
2023-02-09T17:00:53.505Z,0.74
2023-02-09T17:04:05.726Z,0.73
2023-02-09T17:07:12.617Z,0.70
2023-02-09T17:10:31.507Z,0.68
2023-02-09T17:13:40.974Z,0.70
2023-02-09T17:16:53.950Z,0.68
2023-02-09T17:19:59.441Z,0.68
2023-02-09T17:23:08.446Z,0.68
2023-02-09T17:26:21.712Z,0.70
2023-02-09T17:29:31.930Z,0.72
2023-02-09T17:32:38.241Z,0.72
2023-02-09T17:36:22.293Z,0.74
2023-02-09T17:39:02.276Z,0.73
2023-02-09T17:42:13.303Z,0.72
2023-02-09T17:45:24.518Z,0.69
2023-02-09T17:48:39.045Z,0.68
2023-02-09T17:51:53.417Z,0.69
2023-02-09T17:55:07.564Z,0.66
2023-02-09T17:58:17.650Z,0.67
2023-02-09T18:01:44.542Z,0.67
2023-02-09T18:04:52.879Z,0.65
2023-02-09T18:08:00.343Z,0.63
2023-02-09T18:11:09.301Z,0.61
2023-02-09T18:14:17.225Z,0.61
2023-02-09T18:17:26.934Z,0.60
2023-02-09T18:20:40.791Z,0.60
2023-02-09T18:23:55.528Z,0.59
2023-02-09T18:27:07.330Z,0.59
2023-02-09T18:30:20.265Z,0.59
2023-02-09T18:33:33.830Z,0.59
2023-02-09T18:36:46.236Z,0.59
2023-02-09T18:39:56.316Z,0.59
2023-02-09T18:43:06.754Z,0.57
2023-02-09T18:46:18.533Z,0.56
2023-02-09T18:49:27.770Z,0.56
2023-02-09T18:52:42.012Z,0.54
2023-02-09T18:55:55.324Z,0.53
2023-02-09T18:59:05.071Z,0.54
2023-02-09T19:02:17.545Z,0.55
2023-02-09T19:05:29.025Z,0.54
2023-02-09T19:08:47.868Z,0.51
2023-02-09T19:11:57.407Z,0.48
2023-02-09T19:15:19.223Z,0.48
2023-02-09T19:18:35.802Z,0.46
2023-02-09T19:21:45.911Z,0.43
2023-02-09T19:25:02.451Z,0.44
2023-02-09T19:28:13.558Z,0.46
2023-02-09T19:31:34.287Z,0.44
2023-02-09T19:34:46.918Z,0.46
2023-02-09T19:37:57.124Z,0.45
2023-02-09T19:41:10.815Z,0.46
2023-02-09T19:44:26.603Z,0.47
2023-02-09T19:47:39.539Z,0.46
2023-02-09T19:50:51.503Z,0.48
2023-02-09T19:54:01.654Z,0.49
2023-02-09T19:57:16.843Z,0.50
2023-02-09T20:00:32.202Z,0.49
2023-02-09T20:03:50.143Z,0.49
2023-02-09T20:06:56.929Z,0.47
2023-02-09T20:10:05.196Z,0.45
2023-02-09T20:13:13.058Z,0.45
2023-02-09T20:16:42.390Z,0.45
2023-02-09T20:19:59.328Z,0.46
2023-02-09T20:23:18.333Z,0.46
2023-02-09T20:26:34.393Z,0.45
2023-02-09T20:29:47.315Z,0.45
2023-02-09T20:33:10.488Z,0.46
2023-02-09T20:36:28.564Z,0.46
2023-02-09T20:39:38.882Z,0.46
2023-02-09T20:43:15.584Z,0.43
2023-02-09T20:46:46.838Z,0.44
2023-02-09T20:50:05.521Z,0.45
2023-02-09T20:53:18.441Z,0.44
2023-02-09T20:56:28.589Z,0.42
2023-02-09T20:59:42.996Z,0.41
2023-02-09T21:02:54.304Z,0.44
2023-02-09T21:06:10.654Z,0.45
2023-02-09T21:09:39.002Z,0.47
2023-02-09T21:12:50.089Z,0.47
2023-02-09T21:16:06.429Z,0.47
2023-02-09T21:19:20.617Z,0.47
2023-02-09T21:22:39.240Z,0.45
2023-02-09T21:25:50.355Z,0.46
2023-02-09T21:29:06.557Z,0.46
2023-02-09T21:32:25.662Z,0.46
2023-02-09T21:35:39.126Z,0.44
2023-02-09T21:38:56.965Z,0.45
2023-02-09T21:42:27.094Z,0.46
2023-02-09T21:45:36.335Z,0.47
2023-02-09T21:48:51.711Z,0.47
2023-02-09T21:52:04.527Z,0.46
2023-02-09T21:55:15.956Z,0.45
2023-02-09T21:58:08.681Z,0.45
2023-02-09T22:01:09.959Z,0.44
2023-02-09T22:04:00.305Z,0.45
2023-02-09T22:06:57.054Z,0.42
2023-02-09T22:09:56.509Z,0.43
2023-02-09T22:13:11.894Z,0.44
2023-02-09T22:16:26.713Z,0.45
2023-02-09T22:19:38.281Z,0.47
2023-02-09T22:22:52.007Z,0.50
2023-02-09T22:26:27.781Z,0.51
2023-02-09T22:29:46.160Z,0.51
2023-02-09T22:32:57.747Z,0.52
2023-02-09T22:36:11.042Z,0.51
2023-02-09T22:39:24.989Z,0.52
2023-02-09T22:42:38.268Z,0.52
2023-02-09T22:46:05.001Z,0.51
2023-02-09T22:49:16.215Z,0.50
2023-02-09T22:52:30.314Z,0.46
2023-02-09T22:55:49.442Z,0.45
2023-02-09T22:59:01.120Z,0.44
2023-02-09T23:02:26.098Z,0.45
2023-02-09T23:05:40.252Z,0.43
2023-02-09T23:08:51.133Z,0.41
2023-02-09T23:12:02.816Z,0.40
2023-02-09T23:15:15.135Z,0.40
2023-02-09T23:18:31.950Z,0.39
2023-02-09T23:21:52.754Z,0.38
2023-02-09T23:25:02.542Z,0.38
2023-02-09T23:28:19.073Z,0.35
2023-02-09T23:31:34.447Z,0.35
2023-02-09T23:34:46.271Z,0.36
2023-02-09T23:38:03.520Z,0.35
2023-02-09T23:41:26.703Z,0.37
2023-02-09T23:44:47.416Z,0.37
2023-02-09T23:47:59.421Z,0.38
2023-02-09T23:51:14.905Z,0.36
2023-02-09T23:54:24.856Z,0.30
2023-02-09T23:57:35.003Z,0.27
